createdAt,value
2017-12-29T00:01:03.408Z,76.10
2017-12-29T00:03:31.734Z,77.10
2017-12-29T00:06:00.044Z,77.10
2017-12-29T00:08:28.333Z,77.00
2017-12-29T00:10:57.376Z,77.50
2017-12-29T00:13:25.657Z,78.20
2017-12-29T00:15:53.998Z,78.30
2017-12-29T00:18:22.290Z,78.70
2017-12-29T00:20:50.798Z,78.40
2017-12-29T00:23:19.232Z,78.60
2017-12-29T00:25:48.320Z,79.10
2017-12-29T00:28:16.653Z,79.10
2017-12-29T00:30:44.963Z,78.80
2017-12-29T00:33:13.326Z,78.90
2017-12-29T00:35:41.613Z,78.60
2017-12-29T00:38:09.998Z,79.50
2017-12-29T00:40:38.343Z,79.50
2017-12-29T00:43:06.720Z,79.30
2017-12-29T00:45:35.132Z,79.90
2017-12-29T00:48:03.479Z,80.50
2017-12-29T00:50:31.864Z,81.30
2017-12-29T00:53:00.196Z,80.90
2017-12-29T00:55:29.312Z,82.10
2017-12-29T00:57:57.600Z,81.90
2017-12-29T01:00:26.756Z,82.10
2017-12-29T01:02:55.089Z,82.10
2017-12-29T01:05:24.792Z,81.10
2017-12-29T01:07:53.107Z,80.40
2017-12-29T01:10:21.407Z,81.10
2017-12-29T01:12:49.704Z,81.40
2017-12-29T01:15:18.037Z,81.40
2017-12-29T01:17:46.768Z,81.40
2017-12-29T01:20:16.210Z,82.00
2017-12-29T01:22:44.499Z,81.90
2017-12-29T01:25:12.899Z,82.50
2017-12-29T01:27:41.196Z,83.40
2017-12-29T01:30:09.529Z,83.20
2017-12-29T01:32:37.823Z,84.00
2017-12-29T01:35:06.114Z,83.00
2017-12-29T01:37:34.425Z,82.80
2017-12-29T01:40:02.760Z,82.40
2017-12-29T01:42:31.827Z,82.60
2017-12-29T01:45:00.888Z,83.30
2017-12-29T01:47:29.987Z,83.30
2017-12-29T01:49:58.296Z,83.20
2017-12-29T01:52:26.639Z,83.50
2017-12-29T01:54:54.947Z,83.60
2017-12-29T01:57:23.277Z,84.10
2017-12-29T01:59:51.584Z,84.00
2017-12-29T02:02:19.869Z,84.30
2017-12-29T02:04:48.192Z,84.00
2017-12-29T02:07:17.989Z,84.20
2017-12-29T02:09:47.999Z,82.60
2017-12-29T02:12:17.595Z,82.40
2017-12-29T02:14:45.899Z,83.30
2017-12-29T02:17:14.208Z,82.50
2017-12-29T02:19:42.527Z,81.80
2017-12-29T02:22:10.826Z,80.90
2017-12-29T02:24:39.153Z,81.20
2017-12-29T02:27:07.940Z,81.80
2017-12-29T02:29:36.276Z,82.00
2017-12-29T02:32:04.573Z,83.90
2017-12-29T02:34:39.809Z,82.50
2017-12-29T02:37:08.088Z,83.00
2017-12-29T02:39:36.379Z,83.70
2017-12-29T02:42:05.481Z,85.00
2017-12-29T02:44:33.823Z,84.80
2017-12-29T02:47:02.110Z,84.00
2017-12-29T02:49:30.412Z,83.90
2017-12-29T02:51:58.741Z,83.90
2017-12-29T02:54:27.084Z,84.20
2017-12-29T02:56:55.445Z,84.30
2017-12-29T02:59:23.748Z,84.70
2017-12-29T03:01:52.030Z,85.20
2017-12-29T03:04:21.226Z,85.10
2017-12-29T03:06:49.623Z,85.10
2017-12-29T03:09:17.912Z,85.70
2017-12-29T03:11:46.231Z,85.80
2017-12-29T03:14:14.596Z,86.50
2017-12-29T03:16:42.912Z,87.00
2017-12-29T03:19:13.724Z,87.30
2017-12-29T03:21:42.024Z,86.80
2017-12-29T03:24:11.716Z,87.80
2017-12-29T03:26:40.680Z,87.60
2017-12-29T03:29:09.762Z,88.50
2017-12-29T03:31:38.069Z,88.30
2017-12-29T03:34:06.387Z,88.50
2017-12-29T03:36:34.769Z,88.90
2017-12-29T03:39:03.088Z,89.00
2017-12-29T03:41:31.401Z,89.30
2017-12-29T03:44:00.500Z,87.00
2017-12-29T03:46:28.793Z,86.90
2017-12-29T03:48:57.108Z,85.60
2017-12-29T03:51:26.287Z,87.30
2017-12-29T03:53:55.339Z,87.50
2017-12-29T03:56:23.726Z,87.40
2017-12-29T03:58:52.065Z,88.20
2017-12-29T04:01:21.166Z,88.30
2017-12-29T04:03:49.484Z,88.20
2017-12-29T04:06:18.551Z,88.50
2017-12-29T04:08:46.895Z,88.20
2017-12-29T04:11:16.036Z,86.50
2017-12-29T04:13:44.341Z,86.40
2017-12-29T04:16:13.429Z,86.20
2017-12-29T04:18:42.613Z,86.10
2017-12-29T04:21:11.577Z,85.70
2017-12-29T04:23:40.263Z,85.80
2017-12-29T04:26:08.549Z,85.80
2017-12-29T04:28:36.859Z,85.50
2017-12-29T04:31:05.195Z,85.50
2017-12-29T04:33:33.518Z,85.70
2017-12-29T04:36:01.839Z,85.10
2017-12-29T04:38:30.147Z,85.50
2017-12-29T04:40:58.437Z,84.80
2017-12-29T04:43:27.548Z,85.60
2017-12-29T04:45:57.100Z,85.50
2017-12-29T04:48:25.417Z,85.40
2017-12-29T04:50:53.710Z,86.90
2017-12-29T04:53:22.053Z,86.30
2017-12-29T04:55:51.144Z,87.90
2017-12-29T04:58:19.631Z,87.80
2017-12-29T05:00:47.988Z,89.10
2017-12-29T05:03:16.248Z,89.30
2017-12-29T05:05:44.570Z,89.40
2017-12-29T05:08:12.953Z,90.50
2017-12-29T05:10:41.739Z,90.40
2017-12-29T05:13:10.111Z,89.80
2017-12-29T05:15:38.427Z,89.50
2017-12-29T05:18:06.754Z,89.60
2017-12-29T05:20:35.847Z,88.50
2017-12-29T05:23:04.210Z,88.40
2017-12-29T05:25:32.528Z,87.60
2017-12-29T05:28:01.581Z,88.60
2017-12-29T05:30:29.902Z,88.40
2017-12-29T05:32:58.215Z,88.30
2017-12-29T05:35:26.535Z,88.70
2017-12-29T05:37:54.845Z,89.10
2017-12-29T05:40:23.156Z,89.50
2017-12-29T05:42:51.492Z,89.20
2017-12-29T05:45:19.817Z,89.00
2017-12-29T05:47:48.133Z,88.90
2017-12-29T05:50:16.443Z,88.40
2017-12-29T05:52:44.768Z,88.90
2017-12-29T05:55:13.068Z,87.60
2017-12-29T05:57:42.833Z,87.90
2017-12-29T06:00:11.968Z,87.40
2017-12-29T06:02:40.279Z,86.80
2017-12-29T06:05:08.613Z,87.30
2017-12-29T06:07:37.692Z,87.80
2017-12-29T06:10:06.033Z,87.70
2017-12-29T06:12:34.332Z,87.30
2017-12-29T06:15:02.641Z,87.40
2017-12-29T06:17:31.735Z,87.20
2017-12-29T06:20:00.051Z,87.10
2017-12-29T06:22:28.376Z,86.20
2017-12-29T06:24:56.713Z,86.10
2017-12-29T06:27:25.073Z,86.30
2017-12-29T06:29:53.389Z,85.60
2017-12-29T06:32:21.686Z,86.00
2017-12-29T06:34:50.013Z,86.30
2017-12-29T06:37:18.332Z,86.50
2017-12-29T06:39:46.805Z,86.70
2017-12-29T06:42:15.121Z,87.20
2017-12-29T06:44:43.408Z,86.90
2017-12-29T06:47:11.812Z,86.90
2017-12-29T06:49:41.855Z,85.60
2017-12-29T06:52:11.009Z,85.40
2017-12-29T06:54:39.290Z,85.30
2017-12-29T06:57:07.616Z,85.90
2017-12-29T06:59:35.910Z,85.40
2017-12-29T07:02:05.001Z,85.30
2017-12-29T07:04:33.321Z,85.10
2017-12-29T07:07:01.622Z,84.40
2017-12-29T07:09:30.708Z,83.20
2017-12-29T07:11:59.759Z,83.90
2017-12-29T07:14:28.486Z,83.10
2017-12-29T07:16:56.801Z,83.80
2017-12-29T07:19:25.090Z,83.90
2017-12-29T07:21:53.449Z,83.70
2017-12-29T07:24:21.772Z,83.10
2017-12-29T07:26:51.443Z,84.10
2017-12-29T07:29:20.533Z,83.60
2017-12-29T07:31:49.583Z,83.60
2017-12-29T07:34:18.696Z,83.90
2017-12-29T07:36:47.022Z,83.80
2017-12-29T07:39:15.349Z,84.00
2017-12-29T07:41:44.968Z,84.90
2017-12-29T07:44:13.296Z,84.30
2017-12-29T07:46:42.344Z,84.90
2017-12-29T07:49:10.841Z,84.80
2017-12-29T07:51:39.128Z,84.20
2017-12-29T07:54:07.436Z,83.70
2017-12-29T07:56:35.772Z,83.40
2017-12-29T07:59:04.062Z,83.60
2017-12-29T08:01:32.387Z,84.30
2017-12-29T08:04:00.700Z,84.70
2017-12-29T08:06:29.054Z,85.30
2017-12-29T08:08:57.352Z,85.20
2017-12-29T08:11:25.667Z,84.10
2017-12-29T08:13:54.923Z,84.10
2017-12-29T08:16:23.281Z,84.70
2017-12-29T08:18:51.598Z,84.80
2017-12-29T08:21:20.660Z,83.00
2017-12-29T08:23:48.972Z,82.80
2017-12-29T08:26:17.439Z,82.80
2017-12-29T08:28:45.769Z,83.10
2017-12-29T08:31:14.080Z,83.30
2017-12-29T08:33:42.379Z,85.00
2017-12-29T08:36:10.936Z,84.50
2017-12-29T08:38:39.221Z,83.70
2017-12-29T08:41:07.504Z,83.00
2017-12-29T08:43:36.575Z,83.20
2017-12-29T08:46:05.617Z,84.00
2017-12-29T08:48:33.934Z,84.70
2017-12-29T08:51:03.239Z,84.30
2017-12-29T08:53:31.566Z,84.90
2017-12-29T08:55:59.873Z,83.90
2017-12-29T08:58:28.182Z,82.90
2017-12-29T09:00:56.512Z,82.90
2017-12-29T09:03:24.833Z,82.20
2017-12-29T09:05:53.182Z,81.20
2017-12-29T09:08:22.333Z,81.50
2017-12-29T09:10:51.520Z,80.20
2017-12-29T09:13:19.824Z,80.10
2017-12-29T09:15:48.591Z,80.30
2017-12-29T09:18:16.893Z,80.40
2017-12-29T09:20:45.204Z,80.40
2017-12-29T09:23:13.504Z,80.50
2017-12-29T09:25:41.840Z,79.20
2017-12-29T09:28:10.154Z,79.30
2017-12-29T09:30:39.344Z,78.60
2017-12-29T09:33:07.682Z,78.60
2017-12-29T09:35:36.763Z,78.20
2017-12-29T09:38:05.815Z,76.30
2017-12-29T09:40:34.128Z,76.20
2017-12-29T09:43:02.492Z,76.50
2017-12-29T09:45:30.815Z,75.50
2017-12-29T09:47:59.160Z,75.20
2017-12-29T09:50:27.519Z,75.20
2017-12-29T09:52:57.104Z,75.30
2017-12-29T09:55:26.176Z,74.20
2017-12-29T09:57:54.532Z,74.20
2017-12-29T10:00:22.853Z,72.60
2017-12-29T10:02:52.429Z,72.40
2017-12-29T10:05:20.933Z,72.10
2017-12-29T10:07:49.277Z,71.60
2017-12-29T10:10:17.572Z,70.80
2017-12-29T10:12:46.665Z,69.70
2017-12-29T10:15:14.985Z,69.70
2017-12-29T10:17:43.380Z,70.00
2017-12-29T10:20:11.712Z,69.00
2017-12-29T10:22:40.965Z,68.70
2017-12-29T10:25:09.359Z,68.80
2017-12-29T10:27:38.553Z,67.50
2017-12-29T10:30:06.860Z,67.50
2017-12-29T10:32:35.206Z,67.00
2017-12-29T10:35:05.161Z,66.70
2017-12-29T10:37:33.451Z,66.70
2017-12-29T10:40:01.783Z,66.10
2017-12-29T10:42:30.106Z,66.10
2017-12-29T10:44:59.219Z,66.10
2017-12-29T10:47:27.537Z,66.10
2017-12-29T10:49:55.896Z,66.40
2017-12-29T10:52:24.965Z,66.80
2017-12-29T10:54:53.390Z,66.80
2017-12-29T10:57:21.705Z,66.70
2017-12-29T10:59:50.014Z,67.00
2017-12-29T11:02:18.353Z,66.30
2017-12-29T11:04:47.404Z,67.90
2017-12-29T11:07:15.744Z,67.90
2017-12-29T11:09:44.053Z,67.50
2017-12-29T11:12:12.393Z,67.20
2017-12-29T11:14:40.725Z,67.90
2017-12-29T11:17:09.037Z,67.90
2017-12-29T11:19:37.352Z,68.20
2017-12-29T11:22:05.705Z,68.70
2017-12-29T11:24:34.088Z,68.70
2017-12-29T11:27:03.222Z,70.30
2017-12-29T11:29:31.704Z,70.20
2017-12-29T11:32:00.111Z,70.40
2017-12-29T11:34:28.393Z,70.00
2017-12-29T11:36:56.775Z,70.10
2017-12-29T11:39:25.105Z,69.50
2017-12-29T11:41:53.493Z,69.80
2017-12-29T11:44:21.805Z,69.50
2017-12-29T11:46:50.123Z,69.50
2017-12-29T11:49:18.432Z,69.20
2017-12-29T11:51:46.747Z,68.40
2017-12-29T11:54:15.920Z,66.90
2017-12-29T11:56:45.416Z,66.50
2017-12-29T11:59:14.716Z,65.60
2017-12-29T12:01:43.800Z,65.00
2017-12-29T12:04:12.154Z,65.00
2017-12-29T12:06:40.437Z,62.40
2017-12-29T12:09:08.748Z,62.70
2017-12-29T12:11:38.299Z,62.60
2017-12-29T12:14:06.687Z,62.80
2017-12-29T12:16:35.111Z,64.90
2017-12-29T12:21:42.410Z,63.80
2017-12-29T12:24:11.474Z,66.30
2017-12-29T12:26:39.759Z,66.30
2017-12-29T12:29:08.068Z,66.00
2017-12-29T12:31:37.150Z,66.20
2017-12-29T12:34:05.582Z,66.10
2017-12-29T12:36:41.476Z,66.10
2017-12-29T12:39:09.812Z,66.10
2017-12-29T12:41:38.104Z,66.30
2017-12-29T12:44:06.383Z,66.20
2017-12-29T12:46:34.731Z,65.80
2017-12-29T12:49:03.047Z,65.20
2017-12-29T12:51:31.350Z,65.20
2017-12-29T12:53:59.683Z,65.50
2017-12-29T12:56:28.132Z,65.00
2017-12-29T12:58:56.418Z,64.80
2017-12-29T13:01:25.534Z,65.20
2017-12-29T13:03:54.636Z,65.80
2017-12-29T13:06:23.012Z,65.70
2017-12-29T13:08:52.227Z,64.30
2017-12-29T13:11:21.495Z,64.30
2017-12-29T13:13:52.269Z,65.30
2017-12-29T13:16:21.270Z,65.70
2017-12-29T13:18:49.716Z,65.50
2017-12-29T13:21:18.024Z,64.90
2017-12-29T13:23:46.426Z,65.40
2017-12-29T13:26:16.378Z,65.00
2017-12-29T13:28:56.415Z,65.00
2017-12-29T13:31:26.144Z,64.40
2017-12-29T13:33:54.585Z,64.20
2017-12-29T13:36:22.916Z,63.70
2017-12-29T13:38:51.255Z,63.70
2017-12-29T13:41:19.705Z,63.90
2017-12-29T13:46:27.914Z,62.50
2017-12-29T13:48:57.039Z,62.00
2017-12-29T13:51:25.364Z,62.40
2017-12-29T13:53:53.667Z,63.00
2017-12-29T13:56:24.445Z,62.50
2017-12-29T13:58:59.602Z,62.30
2017-12-29T14:01:28.007Z,62.30
2017-12-29T14:03:56.356Z,62.10
2017-12-29T14:06:25.568Z,61.70
2017-12-29T14:08:53.881Z,61.60
2017-12-29T14:11:23.076Z,59.90
2017-12-29T14:13:51.546Z,59.80
2017-12-29T14:16:19.887Z,60.00
2017-12-29T14:18:48.371Z,59.90
2017-12-29T14:21:16.679Z,60.10
2017-12-29T14:23:45.758Z,59.30
2017-12-29T14:26:14.074Z,59.30
2017-12-29T14:28:42.576Z,59.70
2017-12-29T14:31:10.918Z,59.60
2017-12-29T14:33:39.197Z,59.20
2017-12-29T14:36:08.504Z,59.00
2017-12-29T14:38:36.850Z,59.10
2017-12-29T14:41:05.173Z,58.90
2017-12-29T14:43:33.465Z,58.60
2017-12-29T14:46:01.770Z,59.20
2017-12-29T14:48:30.121Z,59.70
2017-12-29T14:51:02.043Z,59.80
2017-12-29T14:53:30.378Z,59.60
2017-12-29T14:55:58.730Z,59.50
2017-12-29T14:58:27.064Z,59.30
2017-12-29T15:00:55.373Z,59.30
2017-12-29T15:03:23.722Z,59.10
2017-12-29T15:05:52.821Z,59.20
2017-12-29T15:08:21.903Z,58.50
2017-12-29T15:10:50.235Z,58.50
2017-12-29T15:13:18.567Z,59.10
2017-12-29T15:15:49.758Z,59.20
2017-12-29T15:18:18.176Z,61.10
2017-12-29T15:20:46.550Z,59.80
2017-12-29T15:23:14.903Z,60.40
2017-12-29T15:25:43.248Z,61.00
2017-12-29T15:28:13.560Z,61.90
2017-12-29T15:30:46.382Z,62.60
2017-12-29T15:33:14.671Z,62.70
2017-12-29T15:35:42.951Z,63.80
2017-12-29T15:38:11.291Z,64.00
2017-12-29T15:40:40.386Z,64.80
2017-12-29T15:43:08.693Z,64.20
2017-12-29T15:45:37.074Z,63.90
2017-12-29T15:48:06.162Z,63.60
2017-12-29T15:50:38.094Z,63.80
2017-12-29T15:53:06.424Z,64.90
2017-12-29T15:55:34.733Z,65.40
2017-12-29T15:58:10.175Z,67.80
2017-12-29T16:00:40.943Z,67.80
2017-12-29T16:03:09.261Z,67.80
2017-12-29T16:05:38.311Z,70.60
2017-12-29T16:08:06.588Z,70.60
2017-12-29T16:10:34.901Z,72.60
2017-12-29T16:13:03.977Z,77.90
2017-12-29T16:15:32.273Z,77.80
2017-12-29T16:18:00.628Z,80.80
2017-12-29T16:20:29.190Z,82.40
2017-12-29T16:22:57.570Z,84.50
2017-12-29T16:25:25.914Z,87.70
2017-12-29T16:27:54.274Z,90.90
2017-12-29T16:30:22.663Z,93.90
2017-12-29T16:32:51.013Z,95.90
2017-12-29T16:35:20.035Z,97.80
2017-12-29T16:37:49.096Z,99.90
2017-12-29T16:40:17.406Z,99.90
2017-12-29T16:42:46.538Z,99.90
2017-12-29T16:45:15.833Z,99.90
2017-12-29T16:47:44.197Z,99.90
2017-12-29T16:50:12.554Z,99.90
2017-12-29T16:52:40.916Z,99.90
2017-12-29T16:55:09.305Z,99.90
2017-12-29T16:57:38.396Z,99.90
2017-12-29T17:00:10.699Z,99.90
2017-12-29T17:02:41.771Z,99.90
2017-12-29T17:05:10.055Z,99.90
2017-12-29T17:07:38.382Z,99.90
2017-12-29T17:10:07.479Z,99.90
2017-12-29T17:12:35.778Z,99.90
2017-12-29T17:15:04.135Z,99.90
2017-12-29T17:17:32.411Z,99.90
2017-12-29T17:20:00.742Z,99.90
2017-12-29T17:22:29.793Z,99.90
2017-12-29T17:25:06.564Z,99.90
2017-12-29T17:27:34.871Z,99.90
2017-12-29T17:30:03.187Z,99.90
2017-12-29T17:32:31.539Z,99.90
2017-12-29T17:34:59.868Z,99.90
2017-12-29T17:37:41.995Z,99.90
2017-12-29T17:40:10.473Z,99.90
2017-12-29T17:42:38.759Z,99.90
2017-12-29T17:45:22.310Z,99.90
2017-12-29T17:50:53.175Z,99.90
2017-12-29T17:53:22.268Z,99.90
2017-12-29T17:55:50.584Z,99.90
2017-12-29T17:58:18.962Z,99.90
2017-12-29T18:00:47.248Z,99.90
2017-12-29T18:03:15.560Z,99.90
2017-12-29T18:05:43.873Z,99.90
2017-12-29T18:08:12.184Z,99.90
2017-12-29T18:10:40.511Z,99.90
2017-12-29T18:13:08.841Z,99.90
2017-12-29T18:15:37.137Z,99.90
2017-12-29T18:18:06.218Z,99.90
2017-12-29T18:20:34.529Z,99.90
2017-12-29T18:23:02.832Z,99.90
2017-12-29T18:25:31.148Z,99.90
2017-12-29T18:28:00.258Z,99.90
2017-12-29T18:30:28.543Z,99.90
2017-12-29T18:32:56.856Z,99.90
2017-12-29T18:35:25.238Z,99.90
2017-12-29T18:37:53.545Z,99.90
2017-12-29T18:40:23.656Z,99.90
2017-12-29T18:42:51.958Z,99.90
2017-12-29T18:45:20.321Z,99.90
2017-12-29T18:47:48.614Z,99.90
2017-12-29T18:50:16.895Z,99.90
2017-12-29T18:52:45.476Z,99.90
2017-12-29T18:55:13.764Z,99.90
2017-12-29T18:57:42.839Z,99.90
2017-12-29T19:00:11.164Z,99.90
2017-12-29T19:02:39.486Z,99.90
2017-12-29T19:05:09.352Z,99.90
2017-12-29T19:07:37.677Z,99.90
2017-12-29T19:10:06.092Z,99.90
2017-12-29T19:12:34.430Z,99.90
2017-12-29T19:15:03.493Z,99.90
2017-12-29T19:17:31.811Z,99.90
2017-12-29T19:20:00.105Z,99.90
2017-12-29T19:22:28.397Z,99.90
2017-12-29T19:24:56.803Z,99.90
2017-12-29T19:27:26.398Z,99.90
2017-12-29T19:29:54.745Z,99.90
2017-12-29T19:32:23.079Z,99.90
2017-12-29T19:34:53.918Z,99.90
2017-12-29T19:37:22.299Z,99.90
2017-12-29T19:39:50.662Z,99.90
2017-12-29T19:42:21.294Z,99.90
2017-12-29T19:44:49.602Z,99.90
2017-12-29T19:47:17.996Z,99.90
2017-12-29T19:49:46.283Z,99.90
2017-12-29T19:52:14.642Z,99.90
2017-12-29T19:54:43.581Z,99.90
2017-12-29T19:57:11.932Z,99.90
2017-12-29T19:59:40.922Z,99.90
2017-12-29T20:02:09.250Z,99.90
2017-12-29T20:04:37.567Z,99.90
2017-12-29T20:07:07.465Z,99.90
2017-12-29T20:09:35.780Z,99.90
2017-12-29T20:12:04.072Z,99.90
2017-12-29T20:14:34.658Z,99.90
2017-12-29T20:17:02.950Z,99.90
2017-12-29T20:19:31.295Z,99.90
2017-12-29T20:22:09.457Z,99.90
2017-12-29T20:24:38.508Z,99.90
2017-12-29T20:27:07.059Z,99.90
2017-12-29T20:29:36.155Z,99.90
2017-12-29T20:32:05.222Z,99.90
2017-12-29T20:34:33.945Z,99.90
2017-12-29T20:37:03.179Z,99.90
2017-12-29T20:39:31.506Z,99.90
2017-12-29T20:41:59.812Z,99.90
2017-12-29T20:44:28.169Z,99.90
2017-12-29T20:46:56.589Z,99.90
2017-12-29T20:49:24.909Z,99.90
2017-12-29T20:51:53.214Z,99.90
2017-12-29T20:54:21.629Z,99.90
2017-12-29T20:56:49.971Z,99.90
2017-12-29T20:59:18.285Z,99.90
2017-12-29T21:01:46.660Z,99.90
2017-12-29T21:04:15.722Z,99.90
2017-12-29T21:06:44.688Z,99.90
2017-12-29T21:09:13.126Z,99.90
2017-12-29T21:11:41.443Z,99.90
2017-12-29T21:14:09.790Z,99.90
2017-12-29T21:16:38.091Z,99.90
2017-12-29T21:19:08.436Z,99.90
2017-12-29T21:21:36.904Z,99.90
2017-12-29T21:24:06.021Z,99.90
2017-12-29T21:26:35.113Z,99.90
2017-12-29T21:29:03.407Z,99.90
2017-12-29T21:31:31.825Z,99.90
2017-12-29T21:34:01.116Z,99.90
2017-12-29T21:36:29.500Z,99.90
2017-12-29T21:38:58.666Z,99.90
2017-12-29T21:41:26.963Z,99.90
2017-12-29T21:43:57.602Z,99.90
2017-12-29T21:46:26.057Z,99.90
2017-12-29T21:48:55.456Z,99.90
2017-12-29T21:51:23.802Z,99.90
2017-12-29T21:53:52.105Z,99.90
2017-12-29T21:56:20.452Z,99.90
2017-12-29T21:58:49.602Z,99.90
2017-12-29T22:01:17.948Z,99.90
2017-12-29T22:03:47.036Z,99.90
2017-12-29T22:06:16.467Z,99.90
2017-12-29T22:08:44.772Z,99.90
2017-12-29T22:11:13.103Z,99.90
2017-12-29T22:13:41.392Z,99.90
2017-12-29T22:16:09.709Z,99.90
2017-12-29T22:18:38.776Z,99.90
2017-12-29T22:21:08.330Z,99.90
2017-12-29T22:23:36.645Z,99.90
2017-12-29T22:26:04.984Z,99.90
2017-12-29T22:28:33.308Z,99.90
2017-12-29T22:31:01.657Z,99.90
2017-12-29T22:33:30.108Z,99.90
2017-12-29T22:35:58.428Z,99.90
2017-12-29T22:38:26.761Z,99.90
2017-12-29T22:40:55.097Z,99.90
2017-12-29T22:43:23.450Z,99.90
2017-12-29T22:45:51.743Z,99.90
2017-12-29T22:48:21.964Z,99.90
2017-12-29T22:50:50.314Z,99.90
2017-12-29T22:53:19.448Z,99.90
2017-12-29T22:55:48.589Z,99.90
2017-12-29T22:58:17.705Z,99.90
2017-12-29T23:00:46.073Z,99.90
2017-12-29T23:03:14.388Z,99.90
2017-12-29T23:05:44.412Z,99.90
2017-12-29T23:08:12.747Z,99.90
2017-12-29T23:10:41.837Z,99.90
2017-12-29T23:13:11.948Z,99.90
2017-12-29T23:15:40.292Z,99.90
2017-12-29T23:18:09.382Z,99.90
2017-12-29T23:20:37.728Z,99.90
2017-12-29T23:23:08.688Z,99.90
2017-12-29T23:25:37.020Z,99.90
2017-12-29T23:28:06.117Z,99.90
2017-12-29T23:30:34.448Z,99.90
2017-12-29T23:33:03.766Z,99.90
2017-12-29T23:35:32.874Z,99.90
2017-12-29T23:38:02.658Z,99.90
2017-12-29T23:40:31.011Z,99.90
2017-12-29T23:42:59.323Z,99.90
2017-12-29T23:45:27.623Z,99.90
2017-12-29T23:47:57.144Z,99.90
2017-12-29T23:50:25.444Z,99.90
2017-12-29T23:52:53.789Z,99.90
2017-12-29T23:55:22.084Z,99.90
2017-12-29T23:57:50.396Z,99.90
